createdAt,value
2023-03-05T00:00:45.885Z,1016.97
2023-03-05T00:01:46.066Z,1017.00
2023-03-05T00:02:46.307Z,1017.02
2023-03-05T00:03:46.453Z,1017.04
2023-03-05T00:04:46.580Z,1016.99
2023-03-05T00:05:46.730Z,1016.96
2023-03-05T00:06:46.921Z,1017.00
2023-03-05T00:07:47.089Z,1016.95
2023-03-05T00:08:47.277Z,1016.95
2023-03-05T00:09:47.472Z,1016.93
2023-03-05T00:10:47.671Z,1016.94
2023-03-05T00:11:47.777Z,1016.92
2023-03-05T00:12:47.958Z,1016.97
2023-03-05T00:13:48.147Z,1016.91
2023-03-05T00:14:48.335Z,1016.87
2023-03-05T00:15:48.506Z,1016.84
2023-03-05T00:16:48.678Z,1016.88
2023-03-05T00:17:48.838Z,1016.84
2023-03-05T00:18:49.025Z,1016.77
2023-03-05T00:19:49.213Z,1016.82
2023-03-05T00:20:49.357Z,1016.75
2023-03-05T00:21:49.545Z,1016.84
2023-03-05T00:22:49.721Z,1016.78
2023-03-05T00:23:49.919Z,1016.77
2023-03-05T00:24:50.071Z,1016.81
2023-03-05T00:25:50.258Z,1016.73
2023-03-05T00:26:50.431Z,1016.77
2023-03-05T00:27:50.632Z,1016.76
2023-03-05T00:28:50.791Z,1016.74
2023-03-05T00:29:51.001Z,1016.68
2023-03-05T00:30:51.162Z,1016.68
2023-03-05T00:31:51.322Z,1016.69
2023-03-05T00:32:51.502Z,1016.68
2023-03-05T00:33:51.683Z,1016.67
2023-03-05T00:34:51.876Z,1016.64
2023-03-05T00:35:52.078Z,1016.69
2023-03-05T00:36:52.223Z,1016.66
2023-03-05T00:37:52.403Z,1016.67
2023-03-05T00:38:52.583Z,1016.63
2023-03-05T00:39:52.777Z,1016.62
2023-03-05T00:40:52.910Z,1016.60
2023-03-05T00:41:53.096Z,1016.60
2023-03-05T00:42:53.267Z,1016.58
2023-03-05T00:43:53.458Z,1016.56
2023-03-05T00:44:53.637Z,1016.59
2023-03-05T00:45:53.784Z,1016.58
2023-03-05T00:46:54.058Z,1016.57
2023-03-05T00:47:54.123Z,1016.50
2023-03-05T00:48:54.310Z,1016.56
2023-03-05T00:49:54.490Z,1016.50
2023-03-05T00:50:54.633Z,1016.48
2023-03-05T00:51:54.801Z,1016.50
2023-03-05T00:52:54.962Z,1016.47
2023-03-05T00:53:55.164Z,1016.40
2023-03-05T00:54:55.324Z,1016.40
2023-03-05T00:55:55.471Z,1016.42
2023-03-05T00:56:55.652Z,1016.41
2023-03-05T00:57:55.827Z,1016.41
2023-03-05T00:58:55.995Z,1016.41
2023-03-05T00:59:56.184Z,1016.37
2023-03-05T01:00:56.320Z,1016.36
2023-03-05T01:01:56.563Z,1016.33
2023-03-05T01:02:56.670Z,1016.39
2023-03-05T01:03:56.858Z,1016.35
2023-03-05T01:04:57.048Z,1016.34
2023-03-05T01:05:57.181Z,1016.38
2023-03-05T01:06:57.338Z,1016.32
2023-03-05T01:07:57.533Z,1016.39
2023-03-05T01:08:57.719Z,1016.32
2023-03-05T01:09:57.905Z,1016.35
2023-03-05T01:10:58.065Z,1016.29
2023-03-05T01:11:58.253Z,1016.26
2023-03-05T01:12:58.433Z,1016.26
2023-03-05T01:13:58.616Z,1016.27
2023-03-05T01:14:58.792Z,1016.22
2023-03-05T01:15:58.979Z,1016.24
2023-03-05T01:16:59.139Z,1016.22
2023-03-05T01:17:59.340Z,1016.24
2023-03-05T01:18:59.479Z,1016.20
2023-03-05T01:19:59.680Z,1016.22
2023-03-05T01:20:59.824Z,1016.20
2023-03-05T01:22:00.005Z,1016.22
2023-03-05T01:23:00.184Z,1016.26
2023-03-05T01:24:00.355Z,1016.22
2023-03-05T01:25:01.492Z,1016.19
2023-03-05T01:26:00.725Z,1016.24
2023-03-05T01:27:00.898Z,1016.20
2023-03-05T01:28:01.070Z,1016.21
2023-03-05T01:29:01.243Z,1016.26
2023-03-05T01:30:01.450Z,1016.23
2023-03-05T01:31:01.589Z,1016.20
2023-03-05T01:32:01.795Z,1016.21
2023-03-05T01:33:01.945Z,1016.23
2023-03-05T01:34:02.132Z,1016.20
2023-03-05T01:35:02.311Z,1016.20
2023-03-05T01:36:02.489Z,1016.21
2023-03-05T01:37:02.670Z,1016.20
2023-03-05T01:38:02.840Z,1016.19
2023-03-05T01:39:03.007Z,1016.13
2023-03-05T01:40:03.192Z,1016.16
2023-03-05T01:41:03.349Z,1016.11
2023-03-05T01:42:03.520Z,1016.11
2023-03-05T01:43:03.697Z,1016.14
2023-03-05T01:44:03.869Z,1016.05
2023-03-05T01:45:04.059Z,1016.10
2023-03-05T01:46:04.287Z,1015.97
2023-03-05T01:47:04.454Z,1016.10
2023-03-05T01:48:04.599Z,1016.05
2023-03-05T01:49:04.771Z,1016.10
2023-03-05T01:50:04.988Z,1016.03
2023-03-05T01:51:05.120Z,1016.03
2023-03-05T01:52:05.287Z,1016.04
2023-03-05T01:53:05.459Z,1016.05
2023-03-05T01:54:05.632Z,1016.01
2023-03-05T01:55:05.827Z,1016.02
2023-03-05T01:56:05.980Z,1016.01
2023-03-05T01:57:06.151Z,1015.99
2023-03-05T01:58:06.325Z,1016.01
2023-03-05T01:59:06.489Z,1016.00
2023-03-05T02:00:06.776Z,1015.99
2023-03-05T02:01:06.949Z,1015.91
2023-03-05T02:02:07.037Z,1015.95
2023-03-05T02:03:07.229Z,1015.93
2023-03-05T02:04:07.449Z,1015.94
2023-03-05T02:05:07.564Z,1015.97
2023-03-05T02:06:07.715Z,1015.96
2023-03-05T02:07:07.885Z,1015.96
2023-03-05T02:08:08.075Z,1015.97
2023-03-05T02:09:08.233Z,1015.89
2023-03-05T02:10:08.428Z,1015.89
2023-03-05T02:11:08.564Z,1015.91
2023-03-05T02:12:08.739Z,1015.91
2023-03-05T02:13:08.915Z,1015.88
2023-03-05T02:14:10.277Z,1015.85
2023-03-05T02:15:09.294Z,1015.82
2023-03-05T02:16:09.451Z,1015.78
2023-03-05T02:17:09.616Z,1015.76
2023-03-05T02:18:09.797Z,1015.78
2023-03-05T02:19:09.978Z,1015.80
2023-03-05T02:20:10.158Z,1015.71
2023-03-05T02:21:10.329Z,1015.78
2023-03-05T02:22:10.508Z,1015.72
2023-03-05T02:23:10.666Z,1015.75
2023-03-05T02:24:10.856Z,1015.68
2023-03-05T02:25:11.062Z,1015.71
2023-03-05T02:26:11.196Z,1015.65
2023-03-05T02:27:11.366Z,1015.66
2023-03-05T02:28:11.548Z,1015.67
2023-03-05T02:29:11.705Z,1015.69
2023-03-05T02:30:11.908Z,1015.65
2023-03-05T02:31:12.058Z,1015.63
2023-03-05T02:32:12.324Z,1015.65
2023-03-05T02:33:12.388Z,1015.64
2023-03-05T02:34:12.563Z,1015.64
2023-03-05T02:35:12.848Z,1015.60
2023-03-05T02:36:12.895Z,1015.57
2023-03-05T02:37:13.080Z,1015.53
2023-03-05T02:38:13.291Z,1015.57
2023-03-05T02:39:13.411Z,1015.53
2023-03-05T02:40:13.608Z,1015.51
2023-03-05T02:41:13.798Z,1015.53
2023-03-05T02:42:13.919Z,1015.50
2023-03-05T02:43:14.092Z,1015.43
2023-03-05T02:44:14.270Z,1015.44
2023-03-05T02:45:14.470Z,1015.43
2023-03-05T02:46:14.649Z,1015.45
2023-03-05T02:47:14.795Z,1015.40
2023-03-05T02:48:14.994Z,1015.44
2023-03-05T02:49:15.135Z,1015.39
2023-03-05T02:50:15.324Z,1015.33
2023-03-05T02:51:15.530Z,1015.41
2023-03-05T02:52:15.627Z,1015.39
2023-03-05T02:53:15.793Z,1015.31
2023-03-05T02:54:16.003Z,1015.32
2023-03-05T02:55:16.140Z,1015.31
2023-03-05T02:56:16.317Z,1015.21
2023-03-05T02:57:16.473Z,1015.33
2023-03-05T02:58:16.657Z,1015.26
2023-03-05T02:59:16.824Z,1015.27
2023-03-05T03:00:17.058Z,1015.26
2023-03-05T03:01:17.219Z,1015.28
2023-03-05T03:02:17.343Z,1015.29
2023-03-05T03:03:17.558Z,1015.31
2023-03-05T03:04:17.697Z,1015.26
2023-03-05T03:05:17.888Z,1015.30
2023-03-05T03:06:18.042Z,1015.30
2023-03-05T03:07:18.210Z,1015.27
2023-03-05T03:08:18.390Z,1015.26
2023-03-05T03:09:18.556Z,1015.23
2023-03-05T03:10:18.742Z,1015.26
2023-03-05T03:11:18.882Z,1015.21
2023-03-05T03:12:19.053Z,1015.24
2023-03-05T03:13:19.213Z,1015.22
2023-03-05T03:14:19.392Z,1015.17
2023-03-05T03:15:19.575Z,1015.21
2023-03-05T03:16:19.762Z,1015.17
2023-03-05T03:17:19.920Z,1015.14
2023-03-05T03:18:20.089Z,1015.14
2023-03-05T03:19:20.348Z,1015.15
2023-03-05T03:20:20.459Z,1015.16
2023-03-05T03:21:20.628Z,1015.10
2023-03-05T03:22:20.822Z,1015.20
2023-03-05T03:23:21.000Z,1015.16
2023-03-05T03:24:21.163Z,1015.12
2023-03-05T03:25:21.352Z,1015.13
2023-03-05T03:26:21.539Z,1015.11
2023-03-05T03:27:21.693Z,1015.08
2023-03-05T03:28:21.871Z,1015.13
2023-03-05T03:29:22.027Z,1015.11
2023-03-05T03:30:22.224Z,1015.04
2023-03-05T03:31:22.402Z,1015.07
2023-03-05T03:32:22.591Z,1014.97
2023-03-05T03:33:22.747Z,1015.01
2023-03-05T03:34:22.921Z,1015.00
2023-03-05T03:35:23.143Z,1015.01
2023-03-05T03:36:23.264Z,1014.98
2023-03-05T03:37:23.433Z,1015.01
2023-03-05T03:38:23.618Z,1015.01
2023-03-05T03:39:23.783Z,1014.98
2023-03-05T03:40:23.967Z,1014.96
2023-03-05T03:41:24.133Z,1014.94
2023-03-05T03:42:24.307Z,1014.90
2023-03-05T03:43:24.463Z,1014.90
2023-03-05T03:44:24.641Z,1014.90
2023-03-05T03:45:24.823Z,1014.91
2023-03-05T03:46:25.045Z,1014.88
2023-03-05T03:47:25.172Z,1014.85
2023-03-05T03:48:25.336Z,1014.83
2023-03-05T03:49:25.503Z,1014.81
2023-03-05T03:50:25.706Z,1014.87
2023-03-05T03:51:25.872Z,1014.86
2023-03-05T03:52:26.041Z,1014.86
2023-03-05T03:53:26.204Z,1014.85
2023-03-05T03:54:26.403Z,1014.82
2023-03-05T03:55:26.560Z,1014.83
2023-03-05T03:56:26.730Z,1014.78
2023-03-05T03:57:26.902Z,1014.72
2023-03-05T03:58:27.072Z,1014.81
2023-03-05T03:59:27.233Z,1014.80
2023-03-05T04:00:27.442Z,1014.77
2023-03-05T04:01:27.606Z,1014.59
2023-03-05T04:02:27.807Z,1014.72
2023-03-05T04:03:27.935Z,1014.75
2023-03-05T04:04:28.123Z,1014.74
2023-03-05T04:05:28.292Z,1014.73
2023-03-05T04:06:28.461Z,1014.79
2023-03-05T04:07:28.636Z,1014.76
2023-03-05T04:08:28.810Z,1014.69
2023-03-05T04:09:28.971Z,1014.64
2023-03-05T04:10:29.161Z,1014.63
2023-03-05T04:11:29.342Z,1014.65
2023-03-05T04:12:29.500Z,1014.67
2023-03-05T04:13:29.662Z,1014.63
2023-03-05T04:14:29.845Z,1014.69
2023-03-05T04:15:30.032Z,1014.66
2023-03-05T04:16:30.208Z,1014.61
2023-03-05T04:17:30.371Z,1014.66
2023-03-05T04:18:32.472Z,1014.60
2023-03-05T04:19:30.726Z,1014.62
2023-03-05T04:20:30.913Z,1014.68
2023-03-05T04:21:31.042Z,1014.59
2023-03-05T04:22:31.213Z,1014.67
2023-03-05T04:23:31.379Z,1014.68
2023-03-05T04:24:31.561Z,1014.71
2023-03-05T04:25:31.740Z,1014.65
2023-03-05T04:26:31.912Z,1014.68
2023-03-05T04:27:32.078Z,1014.62
2023-03-05T04:28:32.238Z,1014.63
2023-03-05T04:29:32.414Z,1014.57
2023-03-05T04:30:32.596Z,1014.52
2023-03-05T04:31:32.874Z,1014.60
2023-03-05T04:32:33.007Z,1014.55
2023-03-05T04:33:33.126Z,1014.51
2023-03-05T04:34:33.395Z,1014.45
2023-03-05T04:35:33.520Z,1014.41
2023-03-05T04:36:33.653Z,1014.44
2023-03-05T04:37:33.833Z,1014.47
2023-03-05T04:38:33.994Z,1014.44
2023-03-05T04:39:34.172Z,1014.38
2023-03-05T04:40:34.368Z,1014.40
2023-03-05T04:41:34.537Z,1014.38
2023-03-05T04:42:34.701Z,1014.34
2023-03-05T04:43:34.872Z,1014.42
2023-03-05T04:44:35.038Z,1014.36
2023-03-05T04:45:35.227Z,1014.42
2023-03-05T04:46:35.470Z,1014.45
2023-03-05T04:47:35.548Z,1014.49
2023-03-05T04:48:35.722Z,1014.44
2023-03-05T04:49:35.889Z,1014.42
2023-03-05T04:50:36.077Z,1014.34
2023-03-05T04:51:36.249Z,1014.34
2023-03-05T04:52:36.408Z,1014.35
2023-03-05T04:53:36.575Z,1014.28
2023-03-05T04:54:36.737Z,1014.31
2023-03-05T04:55:36.926Z,1014.28
2023-03-05T04:56:37.103Z,1014.30
2023-03-05T04:57:37.266Z,1014.27
2023-03-05T04:58:37.458Z,1014.25
2023-03-05T04:59:37.607Z,1014.20
2023-03-05T05:00:37.797Z,1014.23
2023-03-05T05:01:38.018Z,1014.24
2023-03-05T05:02:38.137Z,1014.20
2023-03-05T05:03:38.300Z,1014.29
2023-03-05T05:04:38.464Z,1014.33
2023-03-05T05:05:38.675Z,1014.29
2023-03-05T05:06:38.796Z,1014.37
2023-03-05T05:07:38.967Z,1014.27
2023-03-05T05:08:39.143Z,1014.30
2023-03-05T05:09:39.316Z,1014.27
2023-03-05T05:10:39.515Z,1014.31
2023-03-05T05:11:39.667Z,1014.30
2023-03-05T05:12:39.848Z,1014.29
2023-03-05T05:13:40.027Z,1014.29
2023-03-05T05:14:40.176Z,1014.29
2023-03-05T05:15:40.375Z,1014.29
2023-03-05T05:16:40.517Z,1014.27
2023-03-05T05:17:40.674Z,1014.25
2023-03-05T05:18:40.837Z,1014.23
2023-03-05T05:19:41.084Z,1014.26
2023-03-05T05:20:41.214Z,1014.25
2023-03-05T05:21:41.348Z,1014.18
2023-03-05T05:22:41.522Z,1014.19
2023-03-05T05:23:41.687Z,1014.23
2023-03-05T05:24:41.870Z,1014.29
2023-03-05T05:25:42.056Z,1014.29
2023-03-05T05:26:42.215Z,1014.25
2023-03-05T05:27:42.401Z,1014.27
2023-03-05T05:28:42.553Z,1014.24
2023-03-05T05:29:42.739Z,1014.21
2023-03-05T05:30:42.947Z,1014.24
2023-03-05T05:31:43.150Z,1014.24
2023-03-05T05:32:43.304Z,1014.20
2023-03-05T05:33:43.462Z,1014.20
2023-03-05T05:34:43.635Z,1014.15
2023-03-05T05:35:43.835Z,1014.20
2023-03-05T05:36:43.962Z,1014.29
2023-03-05T05:37:44.116Z,1014.29
2023-03-05T05:38:44.270Z,1014.29
2023-03-05T05:39:44.483Z,1014.30
2023-03-05T05:40:44.645Z,1014.25
2023-03-05T05:41:44.858Z,1014.32
2023-03-05T05:42:45.006Z,1014.27
2023-03-05T05:43:45.224Z,1014.22
2023-03-05T05:44:45.378Z,1014.27
2023-03-05T05:45:45.687Z,1014.31
2023-03-05T05:46:45.849Z,1014.31
2023-03-05T05:47:45.936Z,1014.31
2023-03-05T05:48:46.112Z,1014.32
2023-03-05T05:49:46.293Z,1014.34
2023-03-05T05:50:46.460Z,1014.30
2023-03-05T05:51:46.656Z,1014.36
2023-03-05T05:52:46.790Z,1014.34
2023-03-05T05:53:46.972Z,1014.33
2023-03-05T05:54:47.142Z,1014.30
2023-03-05T05:55:47.340Z,1014.26
2023-03-05T05:56:47.508Z,1014.27
2023-03-05T05:57:47.682Z,1014.30
2023-03-05T05:58:47.847Z,1014.28
2023-03-05T05:59:48.036Z,1014.32
2023-03-05T06:00:48.188Z,1014.29
2023-03-05T06:01:48.387Z,1014.33
2023-03-05T06:02:48.587Z,1014.37
2023-03-05T06:03:48.711Z,1014.29
2023-03-05T06:04:48.897Z,1014.25
2023-03-05T06:05:49.059Z,1014.30
2023-03-05T06:06:49.246Z,1014.23
2023-03-05T06:07:49.427Z,1014.27
2023-03-05T06:08:49.607Z,1014.23
2023-03-05T06:09:49.795Z,1014.29
2023-03-05T06:10:49.947Z,1014.29
2023-03-05T06:11:50.145Z,1014.27
2023-03-05T06:12:50.284Z,1014.28
2023-03-05T06:13:50.485Z,1014.23
2023-03-05T06:14:50.614Z,1014.17
2023-03-05T06:15:50.787Z,1014.23
2023-03-05T06:16:51.038Z,1014.21
2023-03-05T06:17:51.153Z,1014.19
2023-03-05T06:18:51.335Z,1014.18
2023-03-05T06:19:51.525Z,1014.19
2023-03-05T06:20:51.704Z,1014.19
2023-03-05T06:21:51.884Z,1014.18
2023-03-05T06:22:52.035Z,1014.22
2023-03-05T06:23:52.207Z,1014.24
2023-03-05T06:24:52.390Z,1014.19
2023-03-05T06:25:52.552Z,1014.23
2023-03-05T06:26:52.754Z,1014.19
2023-03-05T06:27:52.919Z,1014.18
2023-03-05T06:28:53.091Z,1014.19
2023-03-05T06:29:53.283Z,1014.23
2023-03-05T06:30:53.469Z,1014.19
2023-03-05T06:31:53.646Z,1014.28
2023-03-05T06:32:53.813Z,1014.19
2023-03-05T06:33:53.961Z,1014.23
2023-03-05T06:34:54.146Z,1014.20
2023-03-05T06:35:54.372Z,1014.27
2023-03-05T06:36:54.512Z,1014.21
2023-03-05T06:37:54.682Z,1014.23
2023-03-05T06:38:54.867Z,1014.22
2023-03-05T06:39:55.023Z,1014.25
2023-03-05T06:40:55.215Z,1014.23
2023-03-05T06:41:55.413Z,1014.25
2023-03-05T06:42:55.572Z,1014.30
2023-03-05T06:43:55.741Z,1014.27
2023-03-05T06:44:55.896Z,1014.30
2023-03-05T06:45:56.062Z,1014.27
2023-03-05T06:46:56.237Z,1014.18
2023-03-05T06:47:56.389Z,1014.19
2023-03-05T06:48:56.553Z,1014.17
2023-03-05T06:49:56.703Z,1014.12
2023-03-05T06:50:56.858Z,1014.19
2023-03-05T06:51:57.064Z,1014.22
2023-03-05T06:52:57.220Z,1014.21
2023-03-05T06:53:57.420Z,1014.20
2023-03-05T06:54:57.609Z,1014.24
2023-03-05T06:55:57.803Z,1014.21
2023-03-05T06:56:57.991Z,1014.19
2023-03-05T06:57:58.154Z,1014.16
2023-03-05T06:58:58.330Z,1014.21
2023-03-05T06:59:58.509Z,1014.28
2023-03-05T07:00:58.764Z,1014.25
2023-03-05T07:01:58.892Z,1014.32
2023-03-05T07:02:59.058Z,1014.29
2023-03-05T07:03:59.271Z,1014.30
2023-03-05T07:04:59.408Z,1014.24
2023-03-05T07:05:59.599Z,1014.25
2023-03-05T07:06:59.767Z,1014.25
2023-03-05T07:07:59.921Z,1014.24
2023-03-05T07:09:00.107Z,1014.25
2023-03-05T07:10:00.268Z,1014.23
2023-03-05T07:11:00.448Z,1014.22
2023-03-05T07:12:00.658Z,1014.22
2023-03-05T07:13:00.824Z,1014.19
2023-03-05T07:14:01.008Z,1014.22
2023-03-05T07:15:01.179Z,1014.19
2023-03-05T07:16:01.400Z,1014.19
2023-03-05T07:17:01.551Z,1014.26
2023-03-05T07:18:01.709Z,1014.18
2023-03-05T07:19:01.896Z,1014.18
2023-03-05T07:20:02.086Z,1014.20
2023-03-05T07:21:02.220Z,1014.23
2023-03-05T07:22:02.399Z,1014.22
2023-03-05T07:23:02.552Z,1014.20
2023-03-05T07:24:02.762Z,1014.15
2023-03-05T07:25:02.950Z,1014.19
2023-03-05T07:26:03.106Z,1014.20
2023-03-05T07:27:03.327Z,1014.17
2023-03-05T07:28:03.461Z,1014.15
2023-03-05T07:29:03.639Z,1014.22
2023-03-05T07:30:03.811Z,1014.18
2023-03-05T07:31:04.023Z,1014.21
2023-03-05T07:32:04.296Z,1014.17
2023-03-05T07:33:04.367Z,1014.21
2023-03-05T07:34:04.516Z,1014.14
2023-03-05T07:35:04.686Z,1014.10
2023-03-05T07:36:04.876Z,1014.06
2023-03-05T07:37:05.065Z,1013.99
2023-03-05T07:38:05.229Z,1013.99
2023-03-05T07:39:05.380Z,1013.95
2023-03-05T07:40:05.536Z,1013.90
2023-03-05T07:41:05.708Z,1013.90
2023-03-05T07:42:05.959Z,1013.91
2023-03-05T07:43:06.058Z,1014.01
2023-03-05T07:44:06.229Z,1013.96
2023-03-05T07:45:06.387Z,1013.98
2023-03-05T07:46:06.576Z,1013.98
2023-03-05T07:47:06.747Z,1013.95
2023-03-05T07:48:06.908Z,1014.07
2023-03-05T07:49:07.086Z,1014.08
2023-03-05T07:50:07.253Z,1014.08
2023-03-05T07:51:07.406Z,1014.08
2023-03-05T07:52:07.577Z,1014.05
2023-03-05T07:53:07.737Z,1014.03
2023-03-05T07:54:07.934Z,1014.05
2023-03-05T07:55:08.109Z,1014.07
2023-03-05T07:56:08.305Z,1014.08
2023-03-05T07:57:08.479Z,1014.08
2023-03-05T07:58:08.642Z,1014.05
2023-03-05T07:59:08.853Z,1014.05
2023-03-05T08:00:08.956Z,1014.02
2023-03-05T08:01:09.116Z,1013.98
2023-03-05T08:02:09.309Z,1014.06
2023-03-05T08:03:09.467Z,1014.05
2023-03-05T08:04:09.734Z,1014.01
2023-03-05T08:05:09.838Z,1014.04
2023-03-05T08:06:09.996Z,1014.04
2023-03-05T08:07:10.207Z,1014.06
2023-03-05T08:08:10.372Z,1014.06
2023-03-05T08:09:10.553Z,1014.05
2023-03-05T08:10:10.686Z,1014.08
2023-03-05T08:11:10.853Z,1013.98
2023-03-05T08:12:11.048Z,1014.05
2023-03-05T08:13:11.187Z,1014.07
2023-03-05T08:14:11.367Z,1014.04
2023-03-05T08:15:11.526Z,1013.99
2023-03-05T08:16:11.816Z,1013.97
2023-03-05T08:17:11.895Z,1013.99
2023-03-05T08:18:12.044Z,1013.95
2023-03-05T08:19:12.225Z,1013.88
2023-03-05T08:20:12.402Z,1013.86
2023-03-05T08:21:12.581Z,1013.90
2023-03-05T08:22:12.764Z,1013.88
2023-03-05T08:23:12.944Z,1013.87
2023-03-05T08:24:13.134Z,1013.83
2023-03-05T08:25:13.314Z,1013.85
2023-03-05T08:26:13.510Z,1013.85
2023-03-05T08:27:13.689Z,1013.81
2023-03-05T08:28:13.853Z,1013.84
2023-03-05T08:29:14.029Z,1013.79
2023-03-05T08:30:14.241Z,1013.83
2023-03-05T08:31:14.425Z,1013.80
2023-03-05T08:32:14.557Z,1013.77
2023-03-05T08:33:14.782Z,1013.74
2023-03-05T08:34:14.910Z,1013.66
2023-03-05T08:35:15.092Z,1013.71
2023-03-05T08:36:15.277Z,1013.73
2023-03-05T08:37:15.467Z,1013.74
2023-03-05T08:38:15.640Z,1013.69
2023-03-05T08:39:15.824Z,1013.67
2023-03-05T08:40:16.001Z,1013.76
2023-03-05T08:41:16.184Z,1013.70
2023-03-05T08:42:16.385Z,1013.61
2023-03-05T08:43:16.530Z,1013.67
2023-03-05T08:44:16.703Z,1013.65
2023-03-05T08:45:16.851Z,1013.65
2023-03-05T08:46:17.069Z,1013.59
2023-03-05T08:47:17.203Z,1013.61
2023-03-05T08:48:17.378Z,1013.56
2023-03-05T08:49:17.542Z,1013.55
2023-03-05T08:50:17.734Z,1013.54
2023-03-05T08:51:17.930Z,1013.48
2023-03-05T08:52:18.125Z,1013.60
2023-03-05T08:53:18.288Z,1013.55
2023-03-05T08:54:18.476Z,1013.55
2023-03-05T08:55:18.672Z,1013.53
2023-03-05T08:56:18.835Z,1013.53
2023-03-05T08:57:19.047Z,1013.48
2023-03-05T08:58:19.180Z,1013.46
2023-03-05T08:59:19.358Z,1013.49
2023-03-05T09:00:19.533Z,1013.50
2023-03-05T09:01:19.719Z,1013.42
2023-03-05T09:02:19.872Z,1013.40
2023-03-05T09:03:20.049Z,1013.36
2023-03-05T09:04:20.226Z,1013.35
2023-03-05T09:05:20.405Z,1013.31
2023-03-05T09:06:20.578Z,1013.29
2023-03-05T09:07:20.764Z,1013.29
2023-03-05T09:08:20.935Z,1013.29
2023-03-05T09:09:21.115Z,1013.27
2023-03-05T09:10:21.296Z,1013.30
2023-03-05T09:11:21.466Z,1013.32
2023-03-05T09:12:21.662Z,1013.36
2023-03-05T09:13:21.837Z,1013.33
2023-03-05T09:14:22.016Z,1013.22
2023-03-05T09:15:22.204Z,1013.34
2023-03-05T09:16:22.476Z,1013.26
2023-03-05T09:17:22.580Z,1013.23
2023-03-05T09:18:22.720Z,1013.21
2023-03-05T09:19:22.911Z,1013.22
2023-03-05T09:20:23.168Z,1013.17
2023-03-05T09:21:23.269Z,1013.19
2023-03-05T09:22:23.460Z,1013.21
2023-03-05T09:23:23.627Z,1013.04
2023-03-05T09:24:23.810Z,1013.18
2023-03-05T09:25:23.984Z,1013.03
2023-03-05T09:26:24.175Z,1013.16
2023-03-05T09:27:24.376Z,1013.13
2023-03-05T09:28:24.515Z,1013.02
2023-03-05T09:29:24.704Z,1013.10
2023-03-05T09:30:24.858Z,1013.14
2023-03-05T09:31:25.070Z,1013.00
2023-03-05T09:32:25.279Z,1013.05
2023-03-05T09:33:25.413Z,1013.12
2023-03-05T09:34:25.597Z,1012.99
2023-03-05T09:35:25.808Z,1013.06
2023-03-05T09:36:25.983Z,1013.10
2023-03-05T09:37:26.141Z,1013.10
2023-03-05T09:38:26.325Z,1013.12
2023-03-05T09:39:26.503Z,1013.12
2023-03-05T09:40:26.683Z,1013.14
2023-03-05T09:41:26.855Z,1013.08
2023-03-05T09:42:27.014Z,1013.10
2023-03-05T09:43:27.197Z,1013.05
2023-03-05T09:44:27.371Z,1012.99
2023-03-05T09:45:27.571Z,1013.11
2023-03-05T09:46:27.677Z,1013.05
2023-03-05T09:47:27.872Z,1013.10
2023-03-05T09:48:28.033Z,1013.05
2023-03-05T09:49:28.193Z,1012.98
2023-03-05T09:50:28.335Z,1012.98
2023-03-05T09:51:28.526Z,1012.95
2023-03-05T09:52:28.689Z,1013.00
2023-03-05T09:53:28.863Z,1012.99
2023-03-05T09:54:28.996Z,1013.06
2023-03-05T09:55:29.186Z,1012.97
2023-03-05T09:56:29.397Z,1013.01
2023-03-05T09:57:29.581Z,1012.98
2023-03-05T09:58:29.764Z,1012.99
2023-03-05T09:59:29.912Z,1012.97
2023-03-05T10:00:30.103Z,1013.01
2023-03-05T10:01:30.274Z,1013.03
2023-03-05T10:02:30.494Z,1013.08
2023-03-05T10:03:30.661Z,1013.04
2023-03-05T10:04:30.816Z,1013.10
2023-03-05T10:05:30.976Z,1013.07
2023-03-05T10:06:31.137Z,1013.12
2023-03-05T10:07:31.334Z,1013.10
2023-03-05T10:08:31.509Z,1013.07
2023-03-05T10:09:31.676Z,1013.10
2023-03-05T10:10:31.857Z,1013.00
2023-03-05T10:11:32.037Z,1012.98
2023-03-05T10:12:32.254Z,1012.94
2023-03-05T10:13:32.417Z,1013.02
2023-03-05T10:14:32.572Z,1013.05
2023-03-05T10:15:32.757Z,1012.98
2023-03-05T10:16:32.953Z,1012.98
2023-03-05T10:17:33.107Z,1013.01
2023-03-05T10:18:33.267Z,1012.99
2023-03-05T10:19:33.456Z,1013.00
2023-03-05T10:20:33.660Z,1013.07
2023-03-05T10:21:33.840Z,1012.98
2023-03-05T10:22:34.051Z,1013.00
2023-03-05T10:23:34.196Z,1013.01
2023-03-05T10:24:34.387Z,1012.99
2023-03-05T10:25:34.576Z,1012.98
2023-03-05T10:26:34.768Z,1012.95
2023-03-05T10:27:35.028Z,1012.94
2023-03-05T10:28:35.137Z,1012.95
2023-03-05T10:29:35.326Z,1012.92
2023-03-05T10:30:35.515Z,1012.96
2023-03-05T10:31:35.737Z,1012.89
2023-03-05T10:32:35.897Z,1012.85
2023-03-05T10:33:36.042Z,1012.86
2023-03-05T10:34:36.198Z,1012.85
2023-03-05T10:35:36.373Z,1012.79
2023-03-05T10:36:36.526Z,1012.76
2023-03-05T10:37:36.726Z,1012.77
2023-03-05T10:38:36.888Z,1012.77
2023-03-05T10:39:37.091Z,1012.77
2023-03-05T10:40:37.236Z,1012.69
2023-03-05T10:41:37.429Z,1012.74
2023-03-05T10:42:37.629Z,1012.66
2023-03-05T10:43:37.756Z,1012.64
2023-03-05T10:44:37.963Z,1012.60
2023-03-05T10:45:38.149Z,1012.51
2023-03-05T10:46:38.306Z,1012.55
2023-03-05T10:47:38.516Z,1012.51
2023-03-05T10:48:38.636Z,1012.50
2023-03-05T10:49:38.836Z,1012.47
2023-03-05T10:50:38.980Z,1012.45
2023-03-05T10:51:39.171Z,1012.38
2023-03-05T10:52:39.366Z,1012.36
2023-03-05T10:53:39.536Z,1012.40
2023-03-05T10:54:39.685Z,1012.46
2023-03-05T10:55:39.854Z,1012.41
2023-03-05T10:56:40.015Z,1012.35
2023-03-05T10:57:40.186Z,1012.39
2023-03-05T10:58:40.364Z,1012.38
2023-03-05T10:59:40.566Z,1012.42
2023-03-05T11:00:40.710Z,1012.37
2023-03-05T11:01:40.962Z,1012.43
2023-03-05T11:02:41.076Z,1012.36
2023-03-05T11:03:41.196Z,1012.42
2023-03-05T11:04:41.405Z,1012.41
2023-03-05T11:05:41.526Z,1012.37
2023-03-05T11:06:41.683Z,1012.38
2023-03-05T11:07:41.875Z,1012.39
2023-03-05T11:08:42.036Z,1012.37
2023-03-05T11:09:42.233Z,1012.37
2023-03-05T11:10:42.399Z,1012.35
2023-03-05T11:11:42.593Z,1012.39
2023-03-05T11:12:42.754Z,1012.40
2023-03-05T11:13:42.920Z,1012.38
2023-03-05T11:14:43.090Z,1012.40
2023-03-05T11:15:43.299Z,1012.31
2023-03-05T11:16:43.441Z,1012.36
2023-03-05T11:17:43.640Z,1012.41
2023-03-05T11:18:43.790Z,1012.34
2023-03-05T11:19:43.999Z,1012.34
2023-03-05T11:20:44.174Z,1012.35
2023-03-05T11:21:44.338Z,1012.39
2023-03-05T11:22:44.550Z,1012.40
2023-03-05T11:23:44.694Z,1012.41
2023-03-05T11:24:44.850Z,1012.39
2023-03-05T11:25:45.042Z,1012.37
2023-03-05T11:26:45.197Z,1012.35
2023-03-05T11:27:45.409Z,1012.34
2023-03-05T11:28:45.539Z,1012.36
2023-03-05T11:29:45.749Z,1012.37
2023-03-05T11:30:45.941Z,1012.34
2023-03-05T11:31:46.104Z,1012.31
2023-03-05T11:32:46.250Z,1012.31
2023-03-05T11:33:46.449Z,1012.29
2023-03-05T11:34:46.659Z,1012.27
2023-03-05T11:35:46.825Z,1012.26
2023-03-05T11:36:46.958Z,1012.24
2023-03-05T11:37:47.159Z,1012.18
2023-03-05T11:38:47.326Z,1012.23
2023-03-05T11:39:47.518Z,1012.20
2023-03-05T11:40:47.671Z,1012.20
2023-03-05T11:41:47.895Z,1012.20
2023-03-05T11:42:48.083Z,1012.18
2023-03-05T11:43:48.179Z,1012.08
2023-03-05T11:44:48.336Z,1012.19
2023-03-05T11:45:48.576Z,1012.14
2023-03-05T11:46:48.718Z,1012.08
2023-03-05T11:47:48.919Z,1012.06
2023-03-05T11:48:49.087Z,1012.07
2023-03-05T11:49:49.290Z,1012.12
2023-03-05T11:50:49.514Z,1012.04
2023-03-05T11:51:49.617Z,1012.00
2023-03-05T11:52:49.780Z,1012.02
2023-03-05T11:53:49.953Z,1011.96
2023-03-05T11:54:50.141Z,1012.01
2023-03-05T11:55:50.332Z,1011.99
2023-03-05T11:56:50.496Z,1011.95
2023-03-05T11:57:50.700Z,1011.99
2023-03-05T11:58:50.863Z,1011.96
2023-03-05T11:59:51.060Z,1011.90
2023-03-05T12:00:51.253Z,1011.92
2023-03-05T12:01:51.424Z,1011.94
2023-03-05T12:02:51.679Z,1011.91
2023-03-05T12:03:51.825Z,1011.93
2023-03-05T12:04:51.931Z,1011.92
2023-03-05T12:05:52.114Z,1011.90
2023-03-05T12:06:52.276Z,1011.87
2023-03-05T12:07:52.499Z,1011.88